createdAt,value
2019-03-16T00:01:39.024Z,0.60
2019-03-16T00:04:10.873Z,1.35
2019-03-16T00:06:41.087Z,0.60
2019-03-16T00:09:11.285Z,0.50
2019-03-16T00:11:41.540Z,0.78
2019-03-16T00:14:12.055Z,1.42
2019-03-16T00:16:42.252Z,0.53
2019-03-16T00:19:12.456Z,0.60
2019-03-16T00:21:42.665Z,1.25
2019-03-16T00:24:12.884Z,0.60
2019-03-16T00:26:43.060Z,0.70
2019-03-16T00:29:13.276Z,0.70
2019-03-16T00:31:43.457Z,1.82
2019-03-16T00:34:13.651Z,0.65
2019-03-16T00:36:43.868Z,0.60
2019-03-16T00:39:14.095Z,1.22
2019-03-16T00:41:44.366Z,1.15
2019-03-16T00:44:14.584Z,1.72
2019-03-16T00:46:46.431Z,1.57
2019-03-16T00:49:16.631Z,1.32
2019-03-16T00:51:46.808Z,0.60
2019-03-16T00:54:18.579Z,0.62
2019-03-16T00:56:48.788Z,0.53
2019-03-16T00:59:18.961Z,0.93
2019-03-16T01:01:49.345Z,0.65
2019-03-16T01:04:19.521Z,0.70
2019-03-16T01:06:49.709Z,0.78
2019-03-16T01:09:19.919Z,0.60
2019-03-16T01:11:50.119Z,0.60
2019-03-16T01:14:20.487Z,1.10
2019-03-16T01:16:50.711Z,0.50
2019-03-16T01:19:20.952Z,0.53
2019-03-16T01:21:51.185Z,0.50
2019-03-16T01:24:21.386Z,0.60
2019-03-16T01:26:53.156Z,0.60
2019-03-16T01:29:23.359Z,3.30
2019-03-16T01:31:53.553Z,0.95
2019-03-16T01:34:23.756Z,0.40
2019-03-16T01:36:53.937Z,1.17
2019-03-16T01:39:25.219Z,0.62
2019-03-16T01:41:55.447Z,0.40
2019-03-16T01:44:25.978Z,0.57
2019-03-16T01:46:56.264Z,0.78
2019-03-16T01:49:26.473Z,0.40
2019-03-16T01:51:58.412Z,0.40
2019-03-16T01:54:28.636Z,0.95
2019-03-16T01:56:58.818Z,1.17
2019-03-16T01:59:29.025Z,4.58
2019-03-16T02:01:59.196Z,4.15
2019-03-16T02:04:29.400Z,2.37
2019-03-16T02:06:59.612Z,2.02
2019-03-16T02:09:29.924Z,1.55
2019-03-16T02:12:00.586Z,1.75
2019-03-16T02:14:31.016Z,1.12
2019-03-16T02:17:01.255Z,1.62
2019-03-16T02:19:35.778Z,0.95
2019-03-16T02:22:04.920Z,1.30
2019-03-16T02:24:36.705Z,2.47
2019-03-16T02:27:06.886Z,0.80
2019-03-16T02:29:37.106Z,1.37
2019-03-16T02:32:07.283Z,0.70
2019-03-16T02:34:37.494Z,0.70
2019-03-16T02:37:09.312Z,2.05
2019-03-16T02:39:39.480Z,1.47
2019-03-16T02:42:09.684Z,1.17
2019-03-16T02:44:39.866Z,1.55
2019-03-16T02:47:10.089Z,1.22
2019-03-16T02:49:40.274Z,0.82
2019-03-16T02:52:10.505Z,2.65
2019-03-16T02:54:40.799Z,2.52
2019-03-16T02:57:10.980Z,0.75
2019-03-16T02:59:41.181Z,1.65
2019-03-16T03:02:11.387Z,0.90
2019-03-16T03:04:45.602Z,1.02
2019-03-16T03:07:13.606Z,0.95
2019-03-16T03:09:43.813Z,1.40
2019-03-16T03:12:13.981Z,1.25
2019-03-16T03:14:44.200Z,1.67
2019-03-16T03:17:14.445Z,3.22
2019-03-16T03:19:44.663Z,1.67
2019-03-16T03:22:14.870Z,2.95
2019-03-16T03:24:45.052Z,1.65
2019-03-16T03:27:15.256Z,2.42
2019-03-16T03:29:45.498Z,3.17
2019-03-16T03:32:16.234Z,2.77
2019-03-16T03:34:46.465Z,1.57
2019-03-16T03:37:16.749Z,2.08
2019-03-16T03:39:47.045Z,2.92
2019-03-16T03:42:17.290Z,2.27
2019-03-16T03:44:47.501Z,3.25
2019-03-16T03:47:17.714Z,4.65
2019-03-16T03:49:48.137Z,4.30
2019-03-16T03:52:18.497Z,1.17
2019-03-16T03:54:49.766Z,1.50
2019-03-16T03:57:20.016Z,1.40
2019-03-16T03:59:52.064Z,1.37
2019-03-16T04:02:22.265Z,0.90
2019-03-16T04:04:52.436Z,3.12
2019-03-16T04:07:22.643Z,1.90
2019-03-16T04:09:52.841Z,0.82
2019-03-16T04:12:23.051Z,3.85
2019-03-16T04:14:53.324Z,1.37
2019-03-16T04:17:23.509Z,1.40
2019-03-16T04:19:53.757Z,1.80
2019-03-16T04:22:23.961Z,2.92
2019-03-16T04:24:54.218Z,5.30
2019-03-16T04:27:26.136Z,1.15
2019-03-16T04:29:56.328Z,3.15
2019-03-16T04:32:26.532Z,2.45
2019-03-16T04:34:56.733Z,2.25
2019-03-16T04:37:26.905Z,1.82
2019-03-16T04:39:57.113Z,1.45
2019-03-16T04:42:27.332Z,1.27
2019-03-16T04:44:57.525Z,3.72
2019-03-16T04:47:27.748Z,2.35
2019-03-16T04:49:58.064Z,2.98
2019-03-16T04:52:28.255Z,4.20
2019-03-16T04:54:58.468Z,3.98
2019-03-16T04:57:28.688Z,1.67
2019-03-16T05:00:00.444Z,1.85
2019-03-16T05:02:30.813Z,2.40
2019-03-16T05:05:00.992Z,3.37
2019-03-16T05:07:31.209Z,2.40
2019-03-16T05:10:01.403Z,2.52
2019-03-16T05:12:33.157Z,3.42
2019-03-16T05:15:03.935Z,2.45
2019-03-16T05:17:34.121Z,3.08
2019-03-16T05:20:06.389Z,2.65
2019-03-16T05:22:38.193Z,2.20
2019-03-16T05:25:10.327Z,2.35
2019-03-16T05:27:40.529Z,3.62
2019-03-16T05:30:12.597Z,3.87
2019-03-16T05:32:42.796Z,3.50
2019-03-16T05:35:12.988Z,6.03
2019-03-16T05:37:43.295Z,2.83
2019-03-16T05:40:13.591Z,2.37
2019-03-16T05:42:45.704Z,3.40
2019-03-16T05:45:16.041Z,4.75
2019-03-16T05:47:46.250Z,3.27
2019-03-16T05:50:16.449Z,4.65
2019-03-16T05:52:48.304Z,5.20
2019-03-16T05:55:18.484Z,2.45
2019-03-16T05:57:48.675Z,3.75
2019-03-16T06:00:21.415Z,4.00
2019-03-16T06:02:51.612Z,3.27
2019-03-16T06:05:21.800Z,2.47
2019-03-16T06:07:52.000Z,3.95
2019-03-16T06:10:22.188Z,4.90
2019-03-16T06:12:52.395Z,2.58
2019-03-16T06:15:22.622Z,6.45
2019-03-16T06:17:52.797Z,4.87
2019-03-16T06:20:23.006Z,3.50
2019-03-16T06:22:53.231Z,2.75
2019-03-16T06:25:23.412Z,2.33
2019-03-16T06:27:53.639Z,4.12
2019-03-16T06:30:23.828Z,1.70
2019-03-16T06:32:54.116Z,2.77
2019-03-16T06:35:27.982Z,1.92
2019-03-16T06:37:57.797Z,1.40
2019-03-16T06:40:27.986Z,2.52
2019-03-16T06:42:58.220Z,2.42
2019-03-16T06:45:28.436Z,2.35
2019-03-16T06:47:58.621Z,4.60
2019-03-16T06:50:28.854Z,4.65
2019-03-16T06:52:59.213Z,3.33
2019-03-16T06:55:29.571Z,1.20
2019-03-16T06:57:59.779Z,4.35
2019-03-16T07:00:29.963Z,3.22
2019-03-16T07:03:00.139Z,3.15
2019-03-16T07:05:38.421Z,3.85
2019-03-16T07:08:02.247Z,7.05
2019-03-16T07:10:32.608Z,5.00
2019-03-16T07:13:02.861Z,1.77
2019-03-16T07:15:33.132Z,5.25
2019-03-16T07:18:04.914Z,2.50
2019-03-16T07:20:35.126Z,2.35
2019-03-16T07:23:05.405Z,4.33
2019-03-16T07:25:37.204Z,3.72
2019-03-16T07:28:08.947Z,4.20
2019-03-16T07:30:39.165Z,2.17
2019-03-16T07:33:09.391Z,3.17
2019-03-16T07:35:39.576Z,1.07
2019-03-16T07:38:09.974Z,3.50
2019-03-16T07:40:40.468Z,2.30
2019-03-16T07:43:10.735Z,2.55
2019-03-16T07:45:40.976Z,2.12
2019-03-16T07:48:12.815Z,1.35
2019-03-16T07:50:43.033Z,1.87
2019-03-16T07:53:13.271Z,3.10
2019-03-16T07:55:43.518Z,3.45
2019-03-16T07:58:15.332Z,2.02
2019-03-16T08:00:45.552Z,2.10
2019-03-16T08:03:15.817Z,2.45
2019-03-16T08:05:46.139Z,2.70
2019-03-16T08:08:16.452Z,3.42
2019-03-16T08:10:46.734Z,3.45
2019-03-16T08:13:16.991Z,3.20
2019-03-16T08:15:47.224Z,2.90
2019-03-16T08:18:17.418Z,2.83
2019-03-16T08:20:47.720Z,1.98
2019-03-16T08:23:19.580Z,2.45
2019-03-16T08:25:51.403Z,1.85
2019-03-16T08:28:21.588Z,2.80
2019-03-16T08:30:51.815Z,3.60
2019-03-16T08:33:22.033Z,1.47
2019-03-16T08:35:52.600Z,4.83
2019-03-16T08:38:22.818Z,2.12
2019-03-16T08:40:53.005Z,2.15
2019-03-16T08:43:23.276Z,2.67
2019-03-16T08:45:53.497Z,2.20
2019-03-16T08:48:23.713Z,1.92
2019-03-16T08:50:53.940Z,2.47
2019-03-16T08:53:24.137Z,3.00
2019-03-16T08:55:54.346Z,1.32
2019-03-16T08:58:24.656Z,3.02
2019-03-16T09:00:57.265Z,1.90
2019-03-16T09:03:27.556Z,2.15
2019-03-16T09:05:59.350Z,3.15
2019-03-16T09:08:29.528Z,1.77
2019-03-16T09:10:59.739Z,3.22
2019-03-16T09:13:29.924Z,1.98
2019-03-16T09:16:00.159Z,2.83
2019-03-16T09:18:30.359Z,1.52
2019-03-16T09:21:00.592Z,2.08
2019-03-16T09:23:30.885Z,1.67
2019-03-16T09:26:01.223Z,3.58
2019-03-16T09:28:32.963Z,1.92
2019-03-16T09:31:03.169Z,3.00
2019-03-16T09:33:33.428Z,2.77
2019-03-16T09:36:03.627Z,1.40
2019-03-16T09:38:33.860Z,1.77
2019-03-16T09:41:04.115Z,2.15
2019-03-16T09:43:34.341Z,0.93
2019-03-16T09:46:04.627Z,1.45
2019-03-16T09:48:34.945Z,2.17
2019-03-16T09:51:05.240Z,1.75
2019-03-16T09:53:35.441Z,1.60
2019-03-16T09:56:05.684Z,1.20
2019-03-16T09:58:36.008Z,2.35
2019-03-16T10:01:06.200Z,1.60
2019-03-16T10:03:36.393Z,5.37
2019-03-16T10:06:08.263Z,2.12
2019-03-16T10:08:38.445Z,1.62
2019-03-16T10:11:08.650Z,1.82
2019-03-16T10:13:38.920Z,2.05
2019-03-16T10:16:09.127Z,2.75
2019-03-16T10:18:39.312Z,2.85
2019-03-16T10:21:09.528Z,1.98
2019-03-16T10:23:39.848Z,1.85
2019-03-16T10:26:10.077Z,1.65
2019-03-16T10:28:43.890Z,3.00
2019-03-16T10:31:12.153Z,1.70
2019-03-16T10:33:42.404Z,2.50
2019-03-16T10:36:12.609Z,0.95
2019-03-16T10:38:42.836Z,2.95
2019-03-16T10:41:13.020Z,2.22
2019-03-16T10:43:43.237Z,2.27
2019-03-16T10:46:13.436Z,1.60
2019-03-16T10:48:43.668Z,2.12
2019-03-16T10:51:13.912Z,2.60
2019-03-16T10:53:44.099Z,1.82
2019-03-16T10:56:14.283Z,1.10
2019-03-16T10:58:55.927Z,3.77
2019-03-16T11:01:17.973Z,1.77
2019-03-16T11:03:48.172Z,1.77
2019-03-16T11:06:18.384Z,1.47
2019-03-16T11:08:48.571Z,1.90
2019-03-16T11:11:18.799Z,4.30
2019-03-16T11:13:49.012Z,1.50
2019-03-16T11:16:19.212Z,1.47
2019-03-16T11:18:49.447Z,3.20
2019-03-16T11:21:19.640Z,3.15
2019-03-16T11:23:49.840Z,1.90
2019-03-16T11:26:20.134Z,2.12
2019-03-16T11:28:50.356Z,2.47
2019-03-16T11:31:20.561Z,2.35
2019-03-16T11:33:50.869Z,1.37
2019-03-16T11:36:21.155Z,2.10
2019-03-16T11:38:51.343Z,3.35
2019-03-16T11:41:21.613Z,2.20
2019-03-16T11:43:53.372Z,1.67
2019-03-16T11:46:23.578Z,4.92
2019-03-16T11:48:53.776Z,5.53
2019-03-16T11:51:24.004Z,1.95
2019-03-16T11:53:55.036Z,3.27
2019-03-16T11:56:25.231Z,2.05
2019-03-16T11:58:55.457Z,0.90
2019-03-16T12:01:25.638Z,3.40
2019-03-16T12:03:55.832Z,1.10
2019-03-16T12:06:26.071Z,1.85
2019-03-16T12:08:56.258Z,1.65
2019-03-16T12:11:26.445Z,2.37
2019-03-16T12:13:56.677Z,1.40
2019-03-16T12:16:26.860Z,3.02
2019-03-16T12:18:57.088Z,2.37
2019-03-16T12:21:27.634Z,1.85
2019-03-16T12:23:57.827Z,10.18
2019-03-16T12:26:28.071Z,3.60
2019-03-16T12:28:58.300Z,2.92
2019-03-16T12:31:28.528Z,3.52
2019-03-16T12:33:58.740Z,1.80
2019-03-16T12:36:28.950Z,2.52
2019-03-16T12:38:59.141Z,4.30
2019-03-16T12:41:29.395Z,2.42
2019-03-16T12:43:59.595Z,3.05
2019-03-16T12:46:29.787Z,8.85
2019-03-16T12:49:00.024Z,3.85
2019-03-16T12:51:30.253Z,1.37
2019-03-16T12:54:02.117Z,1.40
2019-03-16T12:56:32.321Z,3.15
2019-03-16T12:59:10.323Z,1.80
2019-03-16T13:01:34.540Z,2.60
2019-03-16T13:04:04.747Z,2.60
2019-03-16T13:06:35.021Z,4.55
2019-03-16T13:09:07.462Z,1.40
2019-03-16T13:11:39.222Z,1.67
2019-03-16T13:14:09.523Z,2.27
2019-03-16T13:16:39.721Z,2.40
2019-03-16T13:19:12.607Z,4.17
2019-03-16T13:21:44.000Z,4.50
2019-03-16T13:24:14.449Z,9.38
2019-03-16T13:26:45.614Z,2.95
2019-03-16T13:29:17.449Z,3.02
2019-03-16T13:31:47.805Z,3.08
2019-03-16T13:34:18.004Z,2.87
2019-03-16T13:36:48.257Z,3.98
2019-03-16T13:39:18.469Z,3.10
2019-03-16T13:41:48.745Z,1.85
2019-03-16T13:44:19.007Z,1.80
2019-03-16T13:46:49.239Z,4.40
2019-03-16T13:49:19.459Z,6.60
2019-03-16T13:51:49.684Z,15.60
2019-03-16T13:54:20.357Z,11.97
2019-03-16T13:56:50.760Z,4.50
2019-03-16T13:59:20.956Z,5.08
2019-03-16T14:01:51.568Z,2.70
2019-03-16T14:04:21.767Z,4.05
2019-03-16T14:06:52.068Z,5.67
2019-03-16T14:09:22.496Z,2.50
2019-03-16T14:11:53.084Z,7.80
2019-03-16T14:14:23.377Z,3.77
2019-03-16T14:16:53.670Z,3.60
2019-03-16T14:19:23.938Z,2.55
2019-03-16T14:21:54.197Z,3.52
2019-03-16T14:24:24.801Z,3.20
2019-03-16T14:26:55.480Z,5.65
2019-03-16T14:29:25.692Z,9.73
2019-03-16T14:31:55.912Z,7.58
2019-03-16T14:34:26.150Z,11.75
2019-03-16T14:36:57.523Z,10.38
2019-03-16T14:39:27.993Z,5.47
2019-03-16T14:41:58.249Z,3.75
2019-03-16T14:44:28.464Z,3.90
2019-03-16T14:47:00.327Z,3.62
2019-03-16T14:49:30.523Z,4.45
2019-03-16T14:52:00.808Z,3.40
2019-03-16T14:54:30.983Z,4.53
2019-03-16T14:57:02.125Z,6.30
2019-03-16T14:59:32.484Z,2.90
2019-03-16T15:02:02.681Z,8.33
2019-03-16T15:04:34.543Z,5.37
2019-03-16T15:07:06.255Z,5.72
2019-03-16T15:09:38.887Z,4.17
2019-03-16T15:12:09.184Z,4.67
2019-03-16T15:14:39.400Z,5.70
2019-03-16T15:17:09.709Z,5.95
2019-03-16T15:19:40.167Z,5.08
2019-03-16T15:22:12.764Z,4.53
2019-03-16T15:24:43.019Z,3.77
2019-03-16T15:27:15.774Z,4.90
2019-03-16T15:29:45.208Z,6.30
2019-03-16T15:32:15.556Z,5.90
2019-03-16T15:34:47.319Z,8.30
2019-03-16T15:37:17.534Z,5.65
2019-03-16T15:39:47.727Z,8.00
2019-03-16T15:42:17.957Z,7.40
2019-03-16T15:44:48.199Z,9.55
2019-03-16T15:47:18.392Z,7.30
2019-03-16T15:49:48.683Z,4.90
2019-03-16T15:52:18.877Z,6.35
2019-03-16T15:54:49.263Z,5.45
2019-03-16T15:57:19.448Z,6.95
2019-03-16T15:59:49.679Z,9.30
2019-03-16T16:02:20.058Z,6.97
2019-03-16T16:04:50.336Z,5.42
2019-03-16T16:07:21.462Z,5.70
2019-03-16T16:09:51.711Z,6.15
2019-03-16T16:12:22.113Z,7.00
2019-03-16T16:14:52.297Z,6.55
2019-03-16T16:17:23.399Z,6.67
2019-03-16T16:19:53.580Z,5.85
2019-03-16T16:22:23.800Z,8.00
2019-03-16T16:24:55.616Z,7.70
2019-03-16T16:27:25.836Z,6.85
2019-03-16T16:29:56.028Z,10.23
2019-03-16T16:32:26.298Z,6.12
2019-03-16T16:34:56.504Z,7.15
2019-03-16T16:37:26.731Z,9.20
2019-03-16T16:39:56.940Z,6.62
2019-03-16T16:42:28.693Z,6.53
2019-03-16T16:44:58.477Z,6.45
2019-03-16T16:47:28.713Z,7.95
2019-03-16T16:49:58.928Z,11.63
2019-03-16T16:52:29.289Z,11.12
2019-03-16T16:54:59.483Z,9.80
2019-03-16T16:57:29.704Z,7.17
2019-03-16T17:00:00.376Z,7.97
2019-03-16T17:02:30.639Z,11.65
2019-03-16T17:05:01.144Z,9.63
2019-03-16T17:07:31.399Z,9.23
2019-03-16T17:10:01.737Z,11.83
2019-03-16T17:12:31.965Z,12.13
2019-03-16T17:15:02.283Z,12.40
2019-03-16T17:17:35.502Z,10.23
2019-03-16T17:20:07.064Z,12.50
2019-03-16T17:22:37.624Z,11.80
2019-03-16T17:25:11.108Z,9.38
2019-03-16T17:27:41.363Z,9.88
2019-03-16T17:30:14.924Z,11.65
2019-03-16T17:32:45.112Z,10.75
2019-03-16T17:35:15.302Z,9.38
2019-03-16T17:37:45.556Z,10.58
2019-03-16T17:40:16.240Z,10.23
2019-03-16T17:42:46.439Z,11.08
2019-03-16T17:45:16.793Z,10.53
2019-03-16T17:47:47.075Z,12.18
2019-03-16T17:50:17.322Z,12.55
2019-03-16T17:52:47.543Z,11.83
2019-03-16T17:55:18.753Z,13.08
2019-03-16T17:57:48.954Z,12.85
2019-03-16T18:00:19.712Z,12.85
2019-03-16T18:02:52.392Z,12.93
2019-03-16T18:05:23.406Z,27.52
2019-03-16T18:07:55.224Z,15.05
2019-03-16T18:10:27.023Z,16.37
2019-03-16T18:12:57.215Z,14.15
2019-03-16T18:15:29.052Z,14.43
2019-03-16T18:17:59.252Z,14.80
2019-03-16T18:20:29.531Z,13.88
2019-03-16T18:22:59.758Z,14.68
2019-03-16T18:25:29.955Z,14.00
2019-03-16T18:28:00.165Z,13.75
2019-03-16T18:30:30.524Z,14.13
2019-03-16T18:33:00.739Z,15.55
2019-03-16T18:35:31.312Z,15.40
2019-03-16T18:38:01.621Z,16.52
2019-03-16T18:40:31.817Z,18.10
2019-03-16T18:43:02.011Z,17.80
2019-03-16T18:45:33.845Z,18.35
2019-03-16T18:48:04.300Z,23.25
2019-03-16T18:50:34.576Z,21.17
2019-03-16T18:53:05.661Z,26.17
2019-03-16T18:55:35.852Z,25.55
2019-03-16T18:58:06.359Z,24.82
2019-03-16T19:00:36.624Z,29.48
2019-03-16T19:03:06.846Z,27.55
2019-03-16T19:05:37.097Z,28.23
2019-03-16T19:08:07.409Z,27.37
2019-03-16T19:10:39.229Z,31.05
2019-03-16T19:13:09.484Z,27.85
2019-03-16T19:15:39.702Z,26.15
2019-03-16T19:18:09.949Z,31.52
2019-03-16T19:20:40.290Z,29.80
2019-03-16T19:23:10.543Z,33.35
2019-03-16T19:25:41.001Z,36.30
2019-03-16T19:28:12.829Z,36.83
2019-03-16T19:30:43.078Z,47.60
2019-03-16T19:33:13.269Z,45.65
2019-03-16T19:35:45.019Z,45.52
2019-03-16T19:38:15.298Z,38.73
2019-03-16T19:40:45.487Z,39.38
2019-03-16T19:43:15.702Z,39.05
2019-03-16T19:45:45.934Z,39.80
2019-03-16T19:48:16.125Z,41.68
2019-03-16T19:50:46.352Z,41.92
2019-03-16T19:53:16.883Z,36.85
2019-03-16T19:55:47.141Z,34.45
2019-03-16T19:58:17.358Z,37.80
2019-03-16T20:00:47.598Z,36.73
2019-03-16T20:03:17.794Z,38.10
2019-03-16T20:05:47.983Z,39.33
2019-03-16T20:08:18.256Z,35.92
2019-03-16T20:10:48.527Z,41.25
2019-03-16T20:13:18.721Z,36.48
2019-03-16T20:15:49.051Z,33.58
2019-03-16T20:18:19.397Z,36.08
2019-03-16T20:20:49.599Z,35.63
2019-03-16T20:23:19.843Z,37.58
2019-03-16T20:25:52.803Z,31.97
2019-03-16T20:28:23.101Z,38.23
2019-03-16T20:30:53.322Z,37.38
2019-03-16T20:33:25.104Z,39.18
2019-03-16T20:35:57.998Z,41.68
2019-03-16T20:38:28.221Z,40.23
2019-03-16T20:40:58.459Z,46.98
2019-03-16T20:43:28.730Z,44.33
2019-03-16T20:45:59.058Z,44.63
2019-03-16T20:48:29.316Z,46.60
2019-03-16T20:50:59.521Z,49.20
2019-03-16T20:53:29.813Z,50.20
2019-03-16T20:56:00.020Z,48.48
2019-03-16T20:58:30.441Z,47.85
2019-03-16T21:01:00.769Z,43.63
2019-03-16T21:03:31.024Z,47.67
2019-03-16T21:06:01.307Z,46.55
2019-03-16T21:08:31.513Z,45.78
2019-03-16T21:11:01.818Z,51.18
2019-03-16T21:13:32.013Z,42.95
2019-03-16T21:16:02.344Z,47.53
2019-03-16T21:18:32.788Z,47.88
2019-03-16T21:21:03.026Z,47.33
2019-03-16T21:23:33.265Z,48.48
2019-03-16T21:26:03.473Z,51.73
2019-03-16T21:28:33.713Z,51.77
2019-03-16T21:31:03.910Z,61.70
2019-03-16T21:33:34.475Z,58.38
2019-03-16T21:36:04.748Z,79.77
2019-03-16T21:38:35.062Z,81.37
2019-03-16T21:41:05.264Z,77.00
2019-03-16T21:43:37.066Z,71.30
2019-03-16T21:46:07.292Z,78.30
2019-03-16T21:48:39.129Z,69.42
2019-03-16T21:51:09.321Z,125.67
2019-03-16T21:53:39.527Z,107.52
2019-03-16T21:56:09.754Z,80.57
2019-03-16T21:58:39.962Z,95.00
2019-03-16T22:01:10.188Z,113.20
2019-03-16T22:03:42.142Z,108.47
2019-03-16T22:06:12.383Z,104.20
2019-03-16T22:08:42.593Z,88.62
2019-03-16T22:11:12.828Z,137.45
2019-03-16T22:13:43.056Z,117.22
2019-03-16T22:16:13.296Z,135.32
2019-03-16T22:18:43.827Z,129.30
2019-03-16T22:21:14.089Z,133.32
2019-03-16T22:23:44.324Z,161.92
2019-03-16T22:26:14.524Z,152.78
2019-03-16T22:28:44.877Z,198.20
2019-03-16T22:31:15.073Z,189.55
2019-03-16T22:33:53.904Z,105.00
2019-03-16T22:36:17.238Z,153.65
2019-03-16T22:38:47.575Z,98.47
2019-03-16T22:41:17.809Z,97.25
2019-03-16T22:43:48.033Z,156.07
2019-03-16T22:46:20.671Z,173.17
2019-03-16T22:48:50.980Z,109.12
2019-03-16T22:51:21.183Z,162.85
2019-03-16T22:53:51.427Z,91.15
2019-03-16T22:56:21.670Z,102.10
2019-03-16T22:58:51.875Z,113.52
2019-03-16T23:01:22.108Z,95.45
2019-03-16T23:03:52.322Z,76.35
2019-03-16T23:06:22.610Z,166.75
2019-03-16T23:08:54.425Z,168.13
2019-03-16T23:11:24.635Z,186.95
2019-03-16T23:13:54.870Z,150.75
2019-03-16T23:16:25.105Z,178.95
2019-03-16T23:18:55.356Z,195.72
2019-03-16T23:21:25.585Z,101.42
2019-03-16T23:23:55.828Z,186.85
2019-03-16T23:26:37.670Z,262.72
2019-03-16T23:28:58.148Z,208.72
2019-03-16T23:31:28.342Z,233.75
2019-03-16T23:33:58.570Z,304.30
2019-03-16T23:36:28.796Z,159.65
2019-03-16T23:39:02.267Z,269.02
2019-03-16T23:41:31.920Z,197.13
2019-03-16T23:44:03.680Z,143.02
2019-03-16T23:46:33.945Z,261.68
2019-03-16T23:49:04.153Z,252.28
2019-03-16T23:51:34.367Z,174.05
2019-03-16T23:54:04.631Z,447.75
2019-03-16T23:56:34.928Z,297.20
2019-03-16T23:59:05.120Z,447.52
